Time;durP1;ratioP1;P1;durP2;ratioP2;P2;SDS_P1;SDS_P2;PMS_P1;PMS_P2;Temp;Humidity;BMP_temperature;BMP_pressure;BME280_temperature;BME280_humidity;BME280_pressure;Samples;Min_cycle;Max_cycle;Signal;HPM_P1;HPM_P2
2023/05/26 00:01:28;;;;;;;12.90;4.17;;;11.50;1.00;;;;;;5056146;28;20620;-82
2023/05/26 00:03:56;;;;;;;16.40;4.13;;;11.40;1.00;;;;;;5048474;28;20512;-83
2023/05/26 00:06:25;;;;;;;13.87;4.33;;;11.40;1.00;;;;;;5045405;28;20470;-83
2023/05/26 00:08:52;;;;;;;17.27;5.23;;;11.40;1.00;;;;;;5047365;28;20463;-81
2023/05/26 00:11:19;;;;;;;14.50;4.70;;;11.40;1.00;;;;;;5036472;28;20478;-82
2023/05/26 00:13:46;;;;;;;14.10;3.53;;;11.40;99.90;;;;;;5025151;28;20444;-83
2023/05/26 00:16:14;;;;;;;13.53;4.47;;;11.30;99.90;;;;;;5031568;28;20548;-83
2023/05/26 00:18:41;;;;;;;15.63;4.40;;;11.30;99.90;;;;;;5043993;28;20487;-83
2023/05/26 00:21:08;;;;;;;13.53;4.40;;;11.30;99.90;;;;;;5037767;28;20904;-84
2023/05/26 00:23:34;;;;;;;13.33;4.47;;;11.20;99.90;;;;;;5022266;28;20459;-82
2023/05/26 00:26:01;;;;;;;13.83;5.63;;;11.20;1.00;;;;;;5040727;28;20523;-82
2023/05/26 00:28:28;;;;;;;17.60;4.70;;;11.20;1.00;;;;;;5022849;28;20548;-81
2023/05/26 00:30:55;;;;;;;13.00;4.10;;;11.10;99.90;;;;;;5025096;28;21022;-81
2023/05/26 00:33:23;;;;;;;15.93;3.90;;;11.10;99.90;;;;;;5042401;28;20461;-83
2023/05/26 00:35:50;;;;;;;22.00;4.57;;;11.10;99.90;;;;;;5044158;28;20453;-81
2023/05/26 00:38:16;;;;;;;17.13;3.83;;;11.10;1.00;;;;;;5042964;28;20522;-83
2023/05/26 00:40:43;;;;;;;21.83;4.27;;;11.00;1.00;;;;;;5041703;28;21223;-82
2023/05/26 00:43:11;;;;;;;12.63;3.20;;;11.00;99.90;;;;;;5042114;28;20560;-80
2023/05/26 00:45:38;;;;;;;13.50;4.23;;;11.00;99.90;;;;;;5042534;28;20453;-81
2023/05/26 00:48:06;;;;;;;17.90;4.37;;;11.00;99.90;;;;;;5041489;28;20454;-83
2023/05/26 00:50:34;;;;;;;12.97;3.90;;;11.00;99.90;;;;;;5041727;28;20527;-83
2023/05/26 00:53:01;;;;;;;16.17;4.20;;;10.90;99.90;;;;;;5024725;28;20547;-82
2023/05/26 00:55:29;;;;;;;10.50;4.03;;;10.90;99.90;;;;;;5038207;28;20456;-83
2023/05/26 00:57:56;;;;;;;14.30;4.23;;;10.90;99.90;;;;;;5045913;28;20456;-81
2023/05/26 01:00:24;;;;;;;11.30;3.60;;;10.90;99.90;;;;;;5041129;28;20494;-82
2023/05/26 01:02:56;;;;;;;13.87;4.27;;;10.80;99.90;;;;;;5041914;28;20450;-80
2023/05/26 01:05:23;;;;;;;20.33;3.93;;;10.80;99.90;;;;;;5040874;28;20504;-82
2023/05/26 01:07:52;;;;;;;15.67;4.83;;;10.80;1.00;;;;;;5031041;28;20490;-81
2023/05/26 01:10:19;;;;;;;19.50;4.20;;;10.80;1.00;;;;;;5032600;28;20464;-83
2023/05/26 01:12:54;;;;;;;19.63;4.37;;;10.70;1.00;;;;;;5022399;28;20805;-83
2023/05/26 01:15:26;;;;;;;15.20;3.87;;;10.70;1.00;;;;;;5023834;28;20481;-83
2023/05/26 01:17:58;;;;;;;10.07;3.27;;;10.70;1.00;;;;;;5041695;28;20426;-80
2023/05/26 01:20:30;;;;;;;14.30;3.77;;;10.70;1.00;;;;;;5056740;28;20817;-83
2023/05/26 01:23:32;;;;;;;17.33;4.03;;;10.60;1.00;;;;;;5041322;28;20444;-83
2023/05/26 01:26:31;;;;;;;13.93;4.03;;;10.60;1.00;;;;;;5026278;28;20494;-83
2023/05/26 01:29:03;;;;;;;13.40;4.00;;;10.60;1.00;;;;;;5022217;28;20530;-82
2023/05/26 01:31:33;;;;;;;15.50;5.00;;;10.50;1.00;;;;;;5037347;28;20477;-82
2023/05/26 01:34:01;;;;;;;14.93;4.37;;;10.40;1.00;;;;;;5041016;28;20453;-82
2023/05/26 01:36:29;;;;;;;17.50;4.70;;;10.40;1.00;;;;;;5029342;28;20461;-82
2023/05/26 01:38:56;;;;;;;19.93;4.87;;;10.40;1.00;;;;;;5022649;28;20458;-82
2023/05/26 01:41:27;;;;;;;16.43;4.13;;;10.40;1.00;;;;;;5021883;28;20516;-83
2023/05/26 01:44:03;;;;;;;15.13;4.70;;;10.30;1.00;;;;;;5020705;28;20832;-82
2023/05/26 01:46:35;;;;;;;15.60;4.70;;;10.30;1.00;;;;;;5026511;28;20451;-83
2023/05/26 01:49:06;;;;;;;18.53;3.40;;;10.30;1.00;;;;;;5021363;28;20454;-81
2023/05/26 01:51:35;;;;;;;17.17;4.37;;;10.20;1.00;;;;;;5035696;28;20464;-83
2023/05/26 01:54:07;;;;;;;15.60;4.00;;;10.20;1.00;;;;;;5039784;28;20456;-84
2023/05/26 01:56:36;;;;;;;19.77;4.20;;;10.20;1.00;;;;;;5035492;28;20464;-83
2023/05/26 01:59:05;;;;;;;15.37;4.03;;;10.10;1.00;;;;;;5036730;28;20452;-81
2023/05/26 02:01:33;;;;;;;19.33;4.63;;;10.10;1.00;;;;;;5060260;28;20538;-82
2023/05/26 02:04:00;;;;;;;18.00;4.53;;;10.00;1.00;;;;;;5041631;28;20481;-83
2023/05/26 02:06:27;;;;;;;17.37;5.80;;;10.00;1.00;;;;;;5058771;28;20443;-82
2023/05/26 02:08:54;;;;;;;14.00;4.63;;;10.00;1.00;;;;;;5052123;28;20445;-82
2023/05/26 02:11:21;;;;;;;17.37;4.53;;;10.00;1.00;;;;;;5040837;28;20472;-82
2023/05/26 02:13:48;;;;;;;15.60;4.33;;;10.00;1.00;;;;;;5039807;28;20449;-82
2023/05/26 02:16:16;;;;;;;12.47;4.70;;;9.90;1.00;;;;;;5057557;28;20456;-81
2023/05/26 02:18:45;;;;;;;14.90;4.73;;;9.90;1.00;;;;;;5050879;28;20456;-82
2023/05/26 02:21:12;;;;;;;18.40;3.57;;;9.90;1.00;;;;;;5019825;28;20496;-83
2023/05/26 02:23:39;;;;;;;16.23;4.00;;;9.80;1.00;;;;;;5023862;28;20453;-83
2023/05/26 02:26:06;;;;;;;14.80;3.50;;;9.90;1.00;;;;;;5055168;28;20849;-82
2023/05/26 02:28:33;;;;;;;16.87;4.90;;;9.80;1.00;;;;;;5055644;28;20470;-83
2023/05/26 02:31:00;;;;;;;11.77;3.83;;;9.80;1.00;;;;;;5039748;28;20479;-82
2023/05/26 02:33:28;;;;;;;18.07;4.00;;;9.80;1.00;;;;;;5038890;28;20462;-82
2023/05/26 02:35:55;;;;;;;17.13;4.37;;;9.70;1.00;;;;;;5033649;28;20527;-81
2023/05/26 02:38:22;;;;;;;14.70;4.30;;;9.70;1.00;;;;;;5040496;28;20532;-82
2023/05/26 02:40:49;;;;;;;13.67;4.10;;;9.70;1.00;;;;;;5020795;28;20524;-80
2023/05/26 02:43:16;;;;;;;19.60;4.50;;;9.60;1.00;;;;;;5019783;28;20946;-83
2023/05/26 02:45:45;;;;;;;11.03;3.90;;;9.60;1.00;;;;;;5037712;28;20536;-82
2023/05/26 02:48:12;;;;;;;14.87;5.30;;;9.70;1.00;;;;;;5040143;28;20450;-83
2023/05/26 02:50:40;;;;;;;25.40;5.07;;;9.60;1.00;;;;;;5021444;28;20452;-82
2023/05/26 02:53:07;;;;;;;17.10;4.60;;;9.60;1.00;;;;;;5019729;28;20457;-83
2023/05/26 02:55:34;;;;;;;12.57;3.80;;;9.60;1.00;;;;;;5045350;28;20457;-81
2023/05/26 02:58:01;;;;;;;13.87;4.10;;;9.60;1.00;;;;;;5047481;28;20454;-82
2023/05/26 03:00:28;;;;;;;15.47;4.27;;;9.50;1.00;;;;;;5034500;28;20462;-83
2023/05/26 03:02:55;;;;;;;17.10;4.80;;;9.60;1.00;;;;;;5019639;28;20448;-82
2023/05/26 03:05:22;;;;;;;18.73;5.80;;;9.60;1.00;;;;;;5024388;28;20450;-83
2023/05/26 03:07:50;;;;;;;14.80;4.80;;;9.50;1.70;;;;;;5019822;28;20494;-82
2023/05/26 03:10:24;;;;;;;17.20;4.73;;;9.50;3.60;;;;;;5022884;28;20583;-80
2023/05/26 03:12:51;;;;;;;13.37;3.83;;;9.50;1.00;;;;;;5037909;28;20452;-82
2023/05/26 03:15:18;;;;;;;24.20;5.57;;;9.60;1.00;;;;;;5042675;28;20451;-82
2023/05/26 03:17:45;;;;;;;15.70;4.20;;;9.50;1.00;;;;;;5039748;28;20960;-82
2023/05/26 03:20:12;;;;;;;15.40;4.27;;;9.50;1.00;;;;;;5037990;28;20510;-83
2023/05/26 03:22:40;;;;;;;17.50;5.23;;;9.50;1.00;;;;;;5038631;28;20492;-82
2023/05/26 03:25:08;;;;;;;24.63;5.90;;;9.50;1.00;;;;;;5038987;28;20552;-82
2023/05/26 03:27:38;;;;;;;15.87;4.57;;;9.50;8.80;;;;;;5020344;28;20461;-83
2023/05/26 03:30:06;;;;;;;15.23;5.53;;;9.50;7.90;;;;;;5025924;28;20465;-80
2023/05/26 03:32:33;;;;;;;13.30;5.00;;;9.50;21.60;;;;;;5053114;28;20472;-80
2023/05/26 03:35:00;;;;;;;15.20;4.87;;;9.50;33.20;;;;;;5041604;28;20458;-82
2023/05/26 03:37:27;;;;;;;17.17;4.00;;;9.50;21.40;;;;;;5040224;28;20463;-82
2023/05/26 03:39:54;;;;;;;16.60;5.73;;;9.50;21.60;;;;;;5039156;28;20460;-79
2023/05/26 03:42:22;;;;;;;16.90;5.10;;;9.50;32.20;;;;;;5038666;28;20505;-82
2023/05/26 03:44:52;;;;;;;20.17;5.10;;;9.50;35.90;;;;;;5041224;28;20459;-79
2023/05/26 03:47:19;;;;;;;17.20;4.20;;;9.60;10.80;;;;;;5038987;28;20459;-82
2023/05/26 03:49:45;;;;;;;18.47;4.70;;;9.50;18.60;;;;;;5036727;28;20932;-81
2023/05/26 03:52:12;;;;;;;25.03;5.57;;;9.50;27.70;;;;;;5039530;28;20542;-81
2023/05/26 03:54:39;;;;;;;20.10;6.63;;;9.50;26.60;;;;;;5052415;28;20421;-80
2023/05/26 03:57:07;;;;;;;19.10;6.90;;;9.50;30.50;;;;;;5036150;28;20527;-80
2023/05/26 03:59:35;;;;;;;17.70;4.53;;;9.60;23.30;;;;;;5031721;28;20457;-80
2023/05/26 04:02:02;;;;;;;15.33;5.33;;;9.60;24.80;;;;;;5026800;28;20517;-81
2023/05/26 04:04:29;;;;;;;20.53;4.10;;;9.60;13.80;;;;;;5022871;28;20458;-82
2023/05/26 04:06:56;;;;;;;15.37;4.53;;;9.60;17.90;;;;;;5044315;28;20528;-82
2023/05/26 04:09:23;;;;;;;24.87;5.40;;;9.60;23.30;;;;;;5040500;28;20452;-84
2023/05/26 04:11:50;;;;;;;14.90;5.03;;;9.70;19.60;;;;;;5026564;28;20561;-81
2023/05/26 04:14:16;;;;;;;17.97;5.80;;;9.80;15.10;;;;;;5030158;28;20453;-82
2023/05/26 04:16:44;;;;;;;28.97;5.90;;;9.90;14.80;;;;;;5027660;28;20497;-82
2023/05/26 04:19:11;;;;;;;19.47;5.53;;;10.00;1.00;;;;;;5019616;28;20457;-81
2023/05/26 04:21:38;;;;;;;19.37;5.57;;;10.10;1.00;;;;;;5019138;28;20575;-80
2023/05/26 04:24:05;;;;;;;23.33;6.03;;;10.20;1.00;;;;;;5027497;28;20452;-82
2023/05/26 04:26:33;;;;;;;20.87;4.60;;;10.30;1.00;;;;;;5039077;28;20452;-86
2023/05/26 04:29:00;;;;;;;19.53;4.97;;;10.40;1.00;;;;;;5038663;28;20452;-83
2023/05/26 04:31:29;;;;;;;21.73;5.60;;;10.50;1.00;;;;;;5051245;22;20480;-79
2023/05/26 04:33:57;;;;;;;19.83;5.37;;;10.50;1.00;;;;;;5000138;28;20510;-80
2023/05/26 04:36:24;;;;;;;20.90;5.53;;;10.60;1.00;;;;;;5002771;28;20455;-79
2023/05/26 04:38:51;;;;;;;17.50;4.80;;;10.70;1.00;;;;;;5002603;28;20469;-82
2023/05/26 04:41:18;;;;;;;26.83;5.40;;;10.80;1.00;;;;;;4999429;28;20557;-81
2023/05/26 04:43:45;;;;;;;15.93;5.60;;;10.80;1.00;;;;;;4997910;28;20497;-80
2023/05/26 04:46:13;;;;;;;16.20;4.73;;;10.90;1.00;;;;;;5002364;28;20538;-81
2023/05/26 04:48:40;;;;;;;19.10;5.17;;;10.90;1.00;;;;;;5006226;28;20466;-79
2023/05/26 04:51:08;;;;;;;20.00;5.53;;;10.90;1.00;;;;;;5007685;28;20442;-79
2023/05/26 04:53:35;;;;;;;17.80;4.67;;;11.00;1.00;;;;;;5002080;28;20539;-80
2023/05/26 04:56:02;;;;;;;17.07;5.10;;;11.10;1.00;;;;;;5005802;28;20460;-79
2023/05/26 04:58:29;;;;;;;19.67;6.23;;;11.10;1.00;;;;;;5006562;28;20479;-79
2023/05/26 05:00:56;;;;;;;19.07;5.67;;;11.10;1.00;;;;;;5008614;28;20975;-80
2023/05/26 05:03:23;;;;;;;20.30;5.23;;;11.20;1.00;;;;;;5006586;28;20537;-80
2023/05/26 05:05:50;;;;;;;21.23;5.17;;;11.30;99.90;;;;;;5006696;28;20491;-79
2023/05/26 05:08:19;;;;;;;21.30;5.60;;;11.40;1.00;;;;;;4987494;28;20467;-79
2023/05/26 05:10:45;;;;;;;17.20;5.20;;;11.50;99.90;;;;;;4985760;28;21206;-80
2023/05/26 05:13:12;;;;;;;15.20;5.60;;;11.50;99.90;;;;;;5000664;28;20555;-79
2023/05/26 05:15:39;;;;;;;24.07;5.07;;;11.50;99.90;;;;;;5000864;28;20532;-79
2023/05/26 05:18:06;;;;;;;16.07;4.77;;;11.60;99.90;;;;;;4997973;28;20548;-79
2023/05/26 05:20:33;;;;;;;25.07;5.67;;;11.60;99.90;;;;;;5001226;28;20464;-81
2023/05/26 05:23:00;;;;;;;18.60;5.60;;;11.60;99.90;;;;;;4999061;28;20500;-79
2023/05/26 05:25:28;;;;;;;27.10;6.40;;;11.70;99.90;;;;;;4996127;28;20461;-79
2023/05/26 05:27:55;;;;;;;19.60;5.77;;;11.70;99.90;;;;;;4999777;28;20461;-79
2023/05/26 05:30:22;;;;;;;28.33;6.20;;;11.80;99.90;;;;;;4995713;28;21018;-80
2023/05/26 05:32:49;;;;;;;20.87;6.03;;;11.80;99.90;;;;;;4984129;28;20496;-80
2023/05/26 05:35:15;;;;;;;24.37;5.50;;;11.70;99.90;;;;;;4995071;28;20464;-80
2023/05/26 05:37:42;;;;;;;23.00;5.77;;;11.50;99.90;;;;;;4990280;28;20482;-79
2023/05/26 05:40:10;;;;;;;21.80;6.20;;;11.50;99.90;;;;;;4996199;28;20506;-78
2023/05/26 05:42:38;;;;;;;18.90;6.77;;;11.50;99.90;;;;;;4996646;28;20580;-78
2023/05/26 05:45:06;;;;;;;18.33;6.17;;;11.40;99.90;;;;;;4996232;28;20531;-79
2023/05/26 05:47:33;;;;;;;19.23;5.80;;;11.40;99.90;;;;;;4999645;28;20472;-79
2023/05/26 05:50:00;;;;;;;18.13;5.03;;;11.40;99.90;;;;;;4992979;28;20580;-84
2023/05/26 05:52:26;;;;;;;21.57;5.17;;;11.40;99.90;;;;;;4996013;28;20552;-81
2023/05/26 05:54:53;;;;;;;16.60;5.73;;;11.40;99.90;;;;;;5000633;28;20851;-83
2023/05/26 05:57:20;;;;;;;21.47;5.23;;;11.30;99.90;;;;;;5003359;28;20457;-84
2023/05/26 05:59:48;;;;;;;20.40;6.90;;;11.30;99.90;;;;;;5000928;28;20464;-83
2023/05/26 06:02:15;;;;;;;16.60;4.87;;;11.40;99.90;;;;;;4995538;28;20503;-82
2023/05/26 06:04:42;;;;;;;24.40;5.60;;;11.40;99.90;;;;;;4994203;28;20461;-85
2023/05/26 06:07:09;;;;;;;23.23;5.70;;;11.40;99.90;;;;;;5000290;28;20457;-83
2023/05/26 06:09:36;;;;;;;20.53;4.90;;;11.40;99.90;;;;;;5001732;28;20570;-82
2023/05/26 06:12:02;;;;;;;22.03;7.70;;;11.50;99.90;;;;;;4995067;28;21168;-82
2023/05/26 06:14:29;;;;;;;25.80;5.93;;;11.60;99.90;;;;;;5004021;28;20458;-83
2023/05/26 06:16:57;;;;;;;19.30;6.33;;;11.60;99.90;;;;;;5001177;28;20452;-82
2023/05/26 06:19:24;;;;;;;19.40;6.13;;;11.80;99.90;;;;;;5003236;28;21029;-83
2023/05/26 06:21:51;;;;;;;20.80;4.90;;;12.00;99.90;;;;;;4999638;28;20491;-80
2023/05/26 06:24:18;;;;;;;22.33;5.50;;;12.10;1.00;;;;;;5004505;28;21014;-84
2023/05/26 06:26:44;;;;;;;20.33;5.03;;;12.20;1.00;;;;;;5002866;28;20517;-84
2023/05/26 06:29:12;;;;;;;25.67;6.27;;;12.30;1.00;;;;;;5008677;28;20522;-84
2023/05/26 06:31:39;;;;;;;19.30;6.17;;;12.50;99.90;;;;;;4997864;28;20509;-82
2023/05/26 06:34:07;;;;;;;20.10;5.20;;;12.60;1.00;;;;;;5001723;28;20449;-81
2023/05/26 06:36:35;;;;;;;17.20;5.63;;;12.70;99.90;;;;;;4999914;28;20487;-82
2023/05/26 06:39:02;;;;;;;23.97;6.50;;;12.80;99.90;;;;;;5007752;28;20458;-83
2023/05/26 06:41:29;;;;;;;14.93;5.57;;;13.00;99.90;;;;;;5004321;28;20832;-82
2023/05/26 06:43:57;;;;;;;17.93;6.30;;;13.10;99.90;;;;;;4995572;28;20489;-83
2023/05/26 06:46:23;;;;;;;23.97;7.00;;;13.20;99.90;;;;;;5000160;28;20459;-84
2023/05/26 06:48:50;;;;;;;19.43;6.40;;;13.30;1.00;;;;;;4998438;28;20637;-81
2023/05/26 06:51:19;;;;;;;13.03;5.70;;;13.50;1.00;;;;;;5003783;28;20450;-82
2023/05/26 06:53:47;;;;;;;19.30;6.40;;;13.70;1.00;;;;;;4997695;28;20545;-83
2023/05/26 06:56:13;;;;;;;23.97;6.27;;;13.80;5.70;;;;;;4998306;28;20486;-82
2023/05/26 06:58:40;;;;;;;23.53;6.10;;;13.90;1.00;;;;;;4994060;28;20490;-84
2023/05/26 07:01:08;;;;;;;21.70;6.33;;;13.90;99.90;;;;;;4983026;28;20473;-83
2023/05/26 07:03:35;;;;;;;20.07;6.07;;;14.00;99.90;;;;;;4981235;28;20498;-83
2023/05/26 07:06:02;;;;;;;24.70;7.27;;;14.00;99.90;;;;;;4997428;28;20457;-81
2023/05/26 07:08:31;;;;;;;19.77;7.03;;;14.00;1.00;;;;;;4991926;28;20458;-83
2023/05/26 07:10:58;;;;;;;22.17;6.20;;;14.00;99.90;;;;;;4999115;28;20522;-83
2023/05/26 07:13:24;;;;;;;19.30;6.30;;;13.90;1.00;;;;;;4996274;28;20480;-84
2023/05/26 07:15:51;;;;;;;21.40;7.23;;;13.70;99.90;;;;;;5000584;28;20463;-81
2023/05/26 07:18:18;;;;;;;20.60;5.50;;;13.60;99.90;;;;;;4994214;28;20573;-82
2023/05/26 07:20:47;;;;;;;19.67;6.53;;;13.60;99.90;;;;;;4984664;28;20564;-83
2023/05/26 07:23:14;;;;;;;14.23;5.73;;;13.60;99.90;;;;;;4997245;28;21013;-81
2023/05/26 07:25:42;;;;;;;18.60;5.80;;;13.70;99.90;;;;;;4995329;28;20462;-82
2023/05/26 07:28:09;;;;;;;24.50;7.90;;;13.70;99.90;;;;;;4998041;28;20537;-83
2023/05/26 07:30:36;;;;;;;17.47;6.37;;;13.70;1.00;;;;;;4997620;28;20489;-83
2023/05/26 07:33:03;;;;;;;23.33;6.60;;;13.70;1.00;;;;;;4993401;28;20487;-81
2023/05/26 07:35:29;;;;;;;21.97;5.90;;;13.70;99.90;;;;;;4994926;28;21111;-82
2023/05/26 07:37:57;;;;;;;19.50;6.33;;;13.80;99.90;;;;;;4992630;28;20545;-82
2023/05/26 07:40:24;;;;;;;23.63;5.50;;;13.80;99.90;;;;;;4984585;28;20470;-83
2023/05/26 07:42:52;;;;;;;20.80;5.60;;;13.90;99.90;;;;;;4991438;28;20943;-82
2023/05/26 07:45:19;;;;;;;19.60;7.80;;;14.00;99.90;;;;;;4997015;28;20462;-83
2023/05/26 07:47:46;;;;;;;17.57;5.30;;;14.00;1.00;;;;;;4994314;28;20461;-82
2023/05/26 07:50:13;;;;;;;19.20;6.83;;;14.00;50.10;;;;;;4993495;28;20457;-82
2023/05/26 07:52:40;;;;;;;19.10;5.90;;;14.10;1.00;;;;;;4995542;28;20496;-83
2023/05/26 07:55:08;;;;;;;21.27;5.60;;;14.10;1.00;;;;;;4996176;28;20943;-83
2023/05/26 07:57:34;;;;;;;19.10;6.30;;;14.20;99.90;;;;;;4989532;28;20513;-84
2023/05/26 08:00:04;;;;;;;13.60;5.00;;;14.20;99.90;;;;;;4994832;28;20491;-83
2023/05/26 08:02:31;;;;;;;16.87;6.67;;;14.30;99.90;;;;;;4995694;28;20491;-83
2023/05/26 08:04:58;;;;;;;20.80;6.60;;;14.40;1.00;;;;;;4997459;28;20460;-84
2023/05/26 08:07:25;;;;;;;15.73;6.10;;;14.50;1.00;;;;;;4999140;28;20548;-83
2023/05/26 08:09:52;;;;;;;22.97;6.40;;;14.70;99.90;;;;;;4999822;28;20963;-83
2023/05/26 08:12:19;;;;;;;21.53;6.10;;;14.80;1.00;;;;;;4998460;28;20512;-83
2023/05/26 08:14:46;;;;;;;21.00;6.23;;;14.80;99.90;;;;;;4990958;28;20460;-83
2023/05/26 08:17:14;;;;;;;17.10;6.07;;;15.10;99.90;;;;;;4994742;28;20728;-82
2023/05/26 08:19:41;;;;;;;19.23;6.37;;;15.30;1.00;;;;;;4998906;28;20496;-83
2023/05/26 08:22:08;;;;;;;20.80;6.77;;;15.40;1.00;;;;;;4999234;28;20544;-84
2023/05/26 08:24:35;;;;;;;17.60;6.23;;;15.30;1.00;;;;;;4997173;28;20518;-83
2023/05/26 08:27:01;;;;;;;15.60;5.67;;;15.60;1.00;;;;;;5006577;28;20569;-82
2023/05/26 08:29:28;;;;;;;17.03;5.50;;;16.00;4.60;;;;;;4997184;28;20950;-82
2023/05/26 08:31:55;;;;;;;17.60;5.37;;;16.50;99.90;;;;;;4995288;28;20482;-82
2023/05/26 08:34:23;;;;;;;16.73;5.47;;;16.90;99.90;;;;;;4999776;28;20938;-83
2023/05/26 08:36:50;;;;;;;17.73;5.30;;;17.30;67.20;;;;;;4997564;28;20440;-82
2023/05/26 08:39:17;;;;;;;20.03;5.50;;;17.40;1.00;;;;;;4998995;28;20897;-84
2023/05/26 08:41:49;;;;;;;16.73;6.40;;;17.40;1.00;;;;;;4997243;28;20565;-83
2023/05/26 08:44:17;;;;;;;15.70;5.00;;;17.30;1.00;;;;;;4997411;28;20479;-83
2023/05/26 08:46:46;;;;;;;18.53;7.37;;;17.30;1.00;;;;;;4998429;28;20458;-83
2023/05/26 08:49:17;;;;;;;17.10;5.53;;;17.30;1.00;;;;;;5003261;28;20457;-84
2023/05/26 08:51:55;;;;;;;14.90;6.37;;;17.40;1.00;;;;;;5002050;28;20488;-82
2023/05/26 08:54:22;;;;;;;15.40;5.97;;;17.40;1.00;;;;;;4994969;28;20506;-83
2023/05/26 08:56:50;;;;;;;23.80;7.27;;;17.40;1.00;;;;;;5010645;28;20546;-83
2023/05/26 08:59:19;;;;;;;15.83;5.23;;;17.40;1.00;;;;;;5002699;28;21112;-81
2023/05/26 09:01:46;;;;;;;16.83;4.83;;;17.50;1.00;;;;;;5004423;28;20496;-84
2023/05/26 09:04:13;;;;;;;21.17;5.77;;;17.60;1.00;;;;;;5001183;28;20851;-83
2023/05/26 09:06:43;;;;;;;17.77;5.53;;;17.70;1.00;;;;;;5003089;28;20531;-83
2023/05/26 09:09:13;;;;;;;18.60;5.90;;;17.90;1.00;;;;;;5001470;28;20454;-84
2023/05/26 09:11:41;;;;;;;20.53;5.30;;;18.20;1.00;;;;;;5000957;28;20481;-83
2023/05/26 09:14:08;;;;;;;13.80;5.20;;;18.40;1.00;;;;;;4997409;28;20466;-84
2023/05/26 09:16:35;;;;;;;16.57;6.50;;;18.50;1.00;;;;;;4996867;28;20547;-83
2023/05/26 09:19:02;;;;;;;15.27;4.53;;;18.50;1.00;;;;;;4998008;28;20477;-84
2023/05/26 09:21:30;;;;;;;19.40;5.40;;;18.60;1.00;;;;;;4997762;28;20842;-82
2023/05/26 09:24:01;;;;;;;15.73;5.60;;;18.70;1.00;;;;;;4992582;28;20573;-84
2023/05/26 09:26:31;;;;;;;16.57;5.53;;;18.90;1.00;;;;;;4997517;28;20822;-83
2023/05/26 09:28:58;;;;;;;13.33;5.07;;;19.10;1.00;;;;;;4995625;28;20456;-84
2023/05/26 09:31:26;;;;;;;18.70;5.10;;;19.30;1.00;;;;;;5001976;28;20451;-81
2023/05/26 09:33:53;;;;;;;15.63;4.70;;;19.30;1.00;;;;;;4992057;28;20550;-83
2023/05/26 09:36:24;;;;;;;23.37;6.10;;;19.50;1.00;;;;;;4993534;28;20537;-82
2023/05/26 09:38:52;;;;;;;21.50;6.63;;;19.70;1.00;;;;;;4996681;28;20459;-85
2023/05/26 09:41:20;;;;;;;20.50;6.47;;;19.90;1.00;;;;;;5008962;28;20462;-85
2023/05/26 09:43:50;;;;;;;15.60;4.43;;;20.20;1.00;;;;;;5001823;28;20475;-84
2023/05/26 09:46:21;;;;;;;16.70;4.70;;;20.50;1.00;;;;;;5004774;28;20513;-83
2023/05/26 09:48:51;;;;;;;14.53;5.33;;;20.70;1.00;;;;;;5021999;28;20480;-84
2023/05/26 09:51:19;;;;;;;12.70;5.80;;;21.10;1.00;;;;;;4992761;28;20459;-84
2023/05/26 09:53:46;;;;;;;22.07;5.20;;;21.10;1.00;;;;;;5007369;28;20461;-84
2023/05/26 09:56:16;;;;;;;14.07;6.13;;;21.50;1.00;;;;;;5005919;28;20525;-83
2023/05/26 09:58:48;;;;;;;19.47;5.97;;;21.90;99.90;;;;;;5004664;28;20470;-84
2023/05/26 10:01:17;;;;;;;13.20;5.63;;;22.40;99.90;;;;;;4994340;28;20458;-83
2023/05/26 10:03:45;;;;;;;14.60;4.67;;;22.80;99.90;;;;;;5004150;28;20510;-84
2023/05/26 10:06:12;;;;;;;13.60;4.90;;;23.20;99.90;;;;;;5001479;28;20457;-83
2023/05/26 10:08:40;;;;;;;13.93;4.97;;;23.60;99.90;;;;;;5003708;28;20830;-83
2023/05/26 10:11:08;;;;;;;11.53;4.60;;;24.40;99.90;;;;;;5014860;28;20545;-84
2023/05/26 10:13:36;;;;;;;13.53;6.17;;;25.10;99.90;;;;;;5000751;28;20526;-83
2023/05/26 10:16:06;;;;;;;13.27;4.40;;;25.70;99.90;;;;;;5003524;28;20549;-84
2023/05/26 10:18:32;;;;;;;13.63;5.47;;;26.30;99.90;;;;;;5002948;28;20549;-83
2023/05/26 10:21:05;;;;;;;14.30;5.77;;;26.60;99.90;;;;;;5002894;28;20461;-84
2023/05/26 10:23:36;;;;;;;15.67;4.70;;;26.90;99.90;;;;;;5001292;28;20501;-82
2023/05/26 10:26:08;;;;;;;14.50;5.33;;;27.30;99.90;;;;;;5001281;28;20987;-85
2023/05/26 10:28:41;;;;;;;14.50;4.97;;;27.90;99.90;;;;;;5001889;28;21018;-83
2023/05/26 10:31:09;;;;;;;20.40;5.10;;;28.30;99.90;;;;;;5001485;28;20447;-84
2023/05/26 10:33:40;;;;;;;13.73;5.50;;;28.90;99.90;;;;;;4999871;28;20557;-84
2023/05/26 10:36:09;;;;;;;13.93;5.40;;;29.10;99.90;;;;;;5000505;28;20458;-84
2023/05/26 10:38:44;;;;;;;13.83;4.80;;;29.00;99.90;;;;;;5001888;28;20457;-83
2023/05/26 10:41:12;;;;;;;11.73;4.80;;;29.60;99.90;;;;;;5000414;28;20501;-82
2023/05/26 10:43:42;;;;;;;13.57;5.40;;;30.00;99.90;;;;;;5002866;28;20483;-83
2023/05/26 10:46:11;;;;;;;10.63;5.10;;;30.40;99.90;;;;;;4993439;28;20458;-81
2023/05/26 10:48:39;;;;;;;15.90;6.67;;;30.90;99.90;;;;;;4990028;28;20475;-82
2023/05/26 10:51:15;;;;;;;14.73;4.87;;;30.80;99.90;;;;;;4996225;28;20549;-83
2023/05/26 10:53:43;;;;;;;13.10;5.30;;;31.20;99.90;;;;;;4994563;28;21022;-84
2023/05/26 10:56:12;;;;;;;16.90;6.20;;;31.40;99.90;;;;;;4995638;28;20468;-82
2023/05/26 10:58:41;;;;;;;10.70;5.47;;;31.60;99.90;;;;;;4995116;28;20462;-82
2023/05/26 11:01:12;;;;;;;11.60;4.60;;;32.10;99.90;;;;;;4996086;28;20467;-83
2023/05/26 11:03:42;;;;;;;13.33;5.20;;;32.40;99.90;;;;;;4988231;28;20926;-84
2023/05/26 11:06:10;;;;;;;13.13;5.37;;;32.60;99.90;;;;;;4982421;28;20535;-83
2023/05/26 11:08:38;;;;;;;11.00;5.13;;;32.70;99.90;;;;;;4994220;28;20481;-84
2023/05/26 11:11:06;;;;;;;12.70;5.17;;;32.50;99.90;;;;;;4998604;28;20477;-83
2023/05/26 11:13:44;;;;;;;11.40;4.40;;;33.20;99.90;;;;;;5015940;28;20469;-83
2023/05/26 11:16:20;;;;;;;19.10;5.70;;;33.60;99.90;;;;;;5004246;28;20468;-83
2023/05/26 11:18:52;;;;;;;13.30;5.33;;;33.80;99.90;;;;;;4998315;28;20558;-84
2023/05/26 11:21:23;;;;;;;17.17;5.30;;;33.90;99.90;;;;;;4989488;28;20956;-83
2023/05/26 11:23:52;;;;;;;16.40;5.60;;;33.80;99.90;;;;;;4992335;28;20480;-80
2023/05/26 11:26:21;;;;;;;13.17;5.20;;;33.90;99.90;;;;;;5009171;28;20459;-85
2023/05/26 11:28:48;;;;;;;11.70;4.97;;;33.70;99.90;;;;;;4997273;28;20466;-81
2023/05/26 11:31:17;;;;;;;10.77;5.40;;;33.50;99.90;;;;;;4990736;28;20530;-80
2023/05/26 11:33:46;;;;;;;14.40;5.33;;;33.70;99.90;;;;;;4997707;28;20458;-83
2023/05/26 11:36:14;;;;;;;15.53;5.97;;;34.20;99.90;;;;;;4997998;28;20454;-83
2023/05/26 11:38:43;;;;;;;14.00;4.73;;;34.40;99.90;;;;;;4990761;28;20463;-84
2023/05/26 11:41:11;;;;;;;12.50;5.53;;;34.00;99.90;;;;;;4992500;28;20460;-84
2023/05/26 11:43:38;;;;;;;13.40;4.90;;;34.10;99.90;;;;;;5002448;28;20494;-83
2023/05/26 11:46:08;;;;;;;13.87;4.27;;;34.70;99.90;;;;;;5005283;28;20458;-81
2023/05/26 11:48:39;;;;;;;16.20;5.30;;;35.00;99.90;;;;;;5001440;28;20553;-84
2023/05/26 11:51:08;;;;;;;8.83;4.47;;;35.40;99.90;;;;;;5010074;28;20462;-83
2023/05/26 11:53:35;;;;;;;14.20;4.53;;;35.80;99.90;;;;;;4992669;28;20479;-82
2023/05/26 11:56:04;;;;;;;11.27;4.60;;;35.80;99.90;;;;;;4999316;28;20514;-83
2023/05/26 11:58:33;;;;;;;14.23;4.27;;;35.90;99.90;;;;;;4997911;28;20454;-81
2023/05/26 12:01:01;;;;;;;12.97;4.23;;;36.50;99.90;;;;;;5004072;28;20972;-83
2023/05/26 12:03:28;;;;;;;11.43;5.10;;;36.60;99.90;;;;;;4989668;28;20490;-82
2023/05/26 12:06:16;;;;;;;11.70;4.63;;;36.90;99.90;;;;;;4995885;28;20461;-82
2023/05/26 12:08:54;;;;;;;8.73;4.90;;;37.00;99.90;;;;;;4986004;28;20536;-84
2023/05/26 12:11:23;;;;;;;15.03;4.77;;;37.00;99.90;;;;;;4994261;28;20477;-84
2023/05/26 12:13:57;;;;;;;12.33;4.27;;;37.10;99.90;;;;;;4991722;28;20961;-81
2023/05/26 12:16:27;;;;;;;12.80;4.90;;;37.20;99.90;;;;;;4991597;28;20497;-83
2023/05/26 12:18:55;;;;;;;14.50;5.03;;;37.50;99.90;;;;;;4995374;28;20462;-82
2023/05/26 12:21:25;;;;;;;10.03;3.90;;;37.70;99.90;;;;;;4990898;28;20465;-84
2023/05/26 12:23:52;;;;;;;12.53;3.93;;;37.60;99.90;;;;;;4979047;28;20487;-82
2023/05/26 12:26:22;;;;;;;12.70;5.10;;;37.70;99.90;;;;;;4976219;28;20457;-83
2023/05/26 12:29:06;;;;;;;11.17;4.80;;;37.60;99.90;;;;;;4981709;28;20501;-82
2023/05/26 12:31:41;;;;;;;12.53;4.37;;;37.70;99.90;;;;;;4991413;28;20474;-83
2023/05/26 12:34:08;;;;;;;8.43;3.90;;;37.70;99.90;;;;;;4986476;28;20448;-82
2023/05/26 12:36:36;;;;;;;9.20;4.40;;;38.10;99.90;;;;;;4989988;28;20462;-83
2023/05/26 12:39:04;;;;;;;7.93;4.17;;;38.20;99.90;;;;;;4990028;28;21002;-82
2023/05/26 12:41:31;;;;;;;9.67;4.30;;;38.20;99.90;;;;;;4992481;28;20533;-84
2023/05/26 12:43:59;;;;;;;10.23;4.23;;;38.30;99.90;;;;;;4999457;28;21032;-82
2023/05/26 12:46:26;;;;;;;11.53;3.60;;;38.10;99.90;;;;;;5014134;28;20454;-83
2023/05/26 12:48:53;;;;;;;11.00;4.07;;;38.40;99.90;;;;;;4992281;28;20470;-83